Time;durP1;ratioP1;P1;durP2;ratioP2;P2;SDS_P1;SDS_P2;PMS_P1;PMS_P2;Temp;Humidity;BMP_temperature;BMP_pressure;BME280_temperature;BME280_humidity;BME280_pressure;Samples;Min_cycle;Max_cycle;Signal;HPM_P1;HPM_P2
2022/04/04 06:02:35;;;;;;;7.38;3.42;;;;;;;;;;4992564;23;20039;-85
2022/04/04 06:05:04;;;;;;;6.45;3.40;;;;;;;;;;4974197;28;20054;-85
2022/04/04 06:07:30;;;;;;;7.65;2.92;;;;;;;;;;4969418;28;20105;-85
2022/04/04 06:09:57;;;;;;;5.82;3.25;;;;;;;;;;4973195;28;20073;-86
2022/04/04 06:12:26;;;;;;;5.93;2.95;;;;;;;;;;4991596;28;20467;-86
2022/04/04 06:14:52;;;;;;;6.18;3.17;;;;;;;;;;4993933;28;20054;-85
2022/04/04 06:17:19;;;;;;;6.18;3.97;;;;;;;;;;4992708;28;20113;-86
2022/04/04 06:19:46;;;;;;;6.35;3.30;;;;;;;;;;4992281;28;20093;-88
2022/04/04 06:22:13;;;;;;;8.50;3.30;;;;;;;;;;4990082;28;20062;-87
2022/04/04 06:24:39;;;;;;;7.18;3.83;;;;;;;;;;4991186;28;20463;-87
2022/04/04 06:27:06;;;;;;;4.85;3.00;;;;;;;;;;4991791;28;20084;-87
2022/04/04 06:29:32;;;;;;;9.98;3.20;;;;;;;;;;4993476;28;20054;-85
2022/04/04 06:31:59;;;;;;;6.63;3.80;;;;;;;;;;4990986;28;20081;-87
2022/04/04 06:34:26;;;;;;;7.65;3.55;;;;;;;;;;4990441;28;20050;-87
2022/04/04 06:36:52;;;;;;;7.20;3.20;;;;;;;;;;4992042;28;20089;-87
2022/04/04 06:39:19;;;;;;;7.88;3.35;;;;;;;;;;4990364;28;20466;-87
2022/04/04 06:41:46;;;;;;;6.65;3.50;;;;;;;;;;4994268;28;20050;-87
2022/04/04 06:44:12;;;;;;;7.10;3.58;;;;;;;;;;4989173;28;20046;-86
2022/04/04 06:46:39;;;;;;;9.32;3.80;;;;;;;;;;4990654;28;20076;-86
2022/04/04 06:49:07;;;;;;;6.18;3.42;;;;;;;;;;4990593;28;20050;-88
2022/04/04 06:51:35;;;;;;;6.90;3.63;;;;;;;;;;4992205;28;20058;-88
2022/04/04 06:54:05;;;;;;;7.60;4.07;;;;;;;;;;4993021;28;20081;-88
2022/04/04 06:56:32;;;;;;;9.63;3.80;;;;;;;;;;4993221;28;20066;-87
2022/04/04 06:58:59;;;;;;;5.40;3.70;;;;;;;;;;4973212;28;20082;-87
2022/04/04 07:01:25;;;;;;;11.93;3.95;;;;;;;;;;4990965;28;20093;-89
2022/04/04 07:03:52;;;;;;;8.93;4.00;;;;;;;;;;4993950;28;20039;-88
2022/04/04 07:06:19;;;;;;;9.30;4.55;;;;;;;;;;4993877;28;20124;-89
2022/04/04 07:08:46;;;;;;;9.25;4.38;;;;;;;;;;4994098;28;20047;-87
2022/04/04 07:11:13;;;;;;;10.75;3.85;;;;;;;;;;4990201;28;20535;-87
2022/04/04 07:13:40;;;;;;;9.48;4.00;;;;;;;;;;4994806;28;20105;-87
2022/04/04 07:16:06;;;;;;;8.23;4.05;;;;;;;;;;4989984;28;20035;-87
2022/04/04 07:18:38;;;;;;;10.45;5.03;;;;;;;;;;4990401;28;20514;-87
2022/04/04 07:21:05;;;;;;;10.90;4.75;;;;;;;;;;4991723;28;20516;-88
2022/04/04 07:23:31;;;;;;;8.93;4.25;;;;;;;;;;4993333;28;20075;-88
2022/04/04 07:25:58;;;;;;;9.52;3.83;;;;;;;;;;4989466;28;20113;-87
2022/04/04 07:28:25;;;;;;;6.72;3.47;;;;;;;;;;4989313;28;20054;-87
2022/04/04 07:30:53;;;;;;;7.43;3.75;;;;;;;;;;4991823;28;20047;-88
2022/04/04 07:33:21;;;;;;;9.15;3.45;;;;;;;;;;4988579;28;20050;-88
2022/04/04 07:35:49;;;;;;;10.73;3.50;;;;;;;;;;4991790;28;20058;-88
2022/04/04 07:38:16;;;;;;;8.80;3.70;;;;;;;;;;4988937;28;20070;-87
2022/04/04 07:40:43;;;;;;;9.48;3.95;;;;;;;;;;4988474;28;20539;-88
2022/04/04 07:43:10;;;;;;;11.40;6.43;;;;;;;;;;4987879;28;20166;-88
2022/04/04 07:45:37;;;;;;;22.05;10.90;;;;;;;;;;4988609;28;20042;-87
2022/04/04 07:48:10;;;;;;;18.98;6.53;;;;;;;;;;4989194;28;20449;-88
2022/04/04 07:50:37;;;;;;;19.53;8.47;;;;;;;;;;4945252;28;20050;-90
2022/04/04 07:53:04;;;;;;;19.30;8.32;;;;;;;;;;4967609;28;20081;-90
2022/04/04 07:55:30;;;;;;;15.48;8.15;;;;;;;;;;4988719;28;20054;-91
2022/04/04 07:57:57;;;;;;;20.20;10.88;;;;;;;;;;4983927;28;20479;-82
2022/04/04 08:00:30;;;;;;;25.67;12.27;;;;;;;;;;4987110;28;20530;-88
2022/04/04 08:02:56;;;;;;;26.60;12.55;;;;;;;;;;4989673;28;20046;-90
2022/04/04 08:05:26;;;;;;;22.23;11.98;;;;;;;;;;4988868;28;20092;-90
2022/04/04 08:07:52;;;;;;;14.45;8.98;;;;;;;;;;4987371;28;20054;-91
2022/04/04 08:10:24;;;;;;;20.48;11.57;;;;;;;;;;4984312;28;20134;-90
2022/04/04 08:12:51;;;;;;;22.50;10.23;;;;;;;;;;4989196;28;20078;-90
2022/04/04 08:15:18;;;;;;;12.07;5.78;;;;;;;;;;4986413;28;20042;-89
2022/04/04 08:17:45;;;;;;;7.93;5.03;;;;;;;;;;4990478;28;20050;-88
2022/04/04 08:20:12;;;;;;;11.45;6.25;;;;;;;;;;4986654;28;20129;-88
2022/04/04 08:22:44;;;;;;;14.05;5.78;;;;;;;;;;4987919;28;20050;-88
2022/04/04 08:25:12;;;;;;;10.73;5.75;;;;;;;;;;4987006;28;20070;-89
2022/04/04 08:27:41;;;;;;;10.18;5.95;;;;;;;;;;4985056;28;20101;-86
2022/04/04 08:30:10;;;;;;;13.23;6.03;;;;;;;;;;4988254;28;20788;-88
2022/04/04 08:32:38;;;;;;;13.00;8.43;;;;;;;;;;4990566;28;20050;-88
2022/04/04 08:35:10;;;;;;;17.85;10.63;;;;;;;;;;4989139;28;20046;-88
2022/04/04 08:37:38;;;;;;;12.57;8.18;;;;;;;;;;4983406;28;20101;-88
2022/04/04 08:40:07;;;;;;;13.63;6.78;;;;;;;;;;4987653;28;20550;-84
2022/04/04 08:42:35;;;;;;;11.73;8.38;;;;;;;;;;4986892;28;20059;-88
2022/04/04 08:45:04;;;;;;;12.48;6.35;;;;;;;;;;4989537;28;20121;-89
2022/04/04 08:47:32;;;;;;;10.15;6.68;;;;;;;;;;4978965;28;20047;-88
2022/04/04 08:50:00;;;;;;;9.63;5.17;;;;;;;;;;4972405;28;20076;-86
2022/04/04 08:52:27;;;;;;;9.02;6.50;;;;;;;;;;4979961;28;20282;-86
2022/04/04 08:54:54;;;;;;;9.65;4.47;;;;;;;;;;4983199;28;20117;-86
2022/04/04 08:57:20;;;;;;;10.95;5.28;;;;;;;;;;4982793;28;20562;-87
2022/04/04 08:59:47;;;;;;;10.52;4.75;;;;;;;;;;4985556;28;20050;-88
2022/04/04 09:02:15;;;;;;;9.77;4.88;;;;;;;;;;4985165;28;20089;-88
2022/04/04 09:04:43;;;;;;;5.75;4.65;;;;;;;;;;4971560;28;20074;-88
2022/04/04 09:07:11;;;;;;;5.95;3.83;;;;;;;;;;4982505;28;20050;-89
2022/04/04 09:09:46;;;;;;;4.55;3.17;;;;;;;;;;4972437;28;20074;-88
2022/04/04 09:12:14;;;;;;;5.78;3.40;;;;;;;;;;4975162;28;20617;-89
2022/04/04 09:14:47;;;;;;;6.82;3.55;;;;;;;;;;4981537;28;20050;-88
2022/04/04 09:17:16;;;;;;;6.13;3.75;;;;;;;;;;4982333;28;20047;-87
2022/04/04 09:19:43;;;;;;;4.82;3.08;;;;;;;;;;4981859;28;20047;-88
2022/04/04 09:22:12;;;;;;;4.47;3.30;;;;;;;;;;4980638;28;20046;-89
2022/04/04 09:24:50;;;;;;;3.95;2.97;;;;;;;;;;4982011;28;20112;-91
2022/04/04 09:27:26;;;;;;;4.32;3.10;;;;;;;;;;4981935;28;20511;-88
2022/04/04 09:30:05;;;;;;;5.38;3.20;;;;;;;;;;4974274;28;20140;-90
2022/04/04 09:32:42;;;;;;;3.45;2.65;;;;;;;;;;4982400;28;20042;-88
2022/04/04 09:35:13;;;;;;;4.68;2.85;;;;;;;;;;4977517;28;20058;-91
2022/04/04 09:37:46;;;;;;;4.18;2.45;;;;;;;;;;4969766;28;20046;-90
2022/04/04 09:40:18;;;;;;;3.85;2.90;;;;;;;;;;4971618;28;20050;-90
2022/04/04 09:42:51;;;;;;;3.63;2.58;;;;;;;;;;4986046;28;20104;-91
2022/04/04 09:45:20;;;;;;;3.47;2.30;;;;;;;;;;4984646;28;20050;-90
2022/04/04 09:47:49;;;;;;;4.30;2.55;;;;;;;;;;4982542;28;20133;-89
2022/04/04 09:50:45;;;;;;;4.07;2.70;;;;;;;;;;4984312;28;20050;-91
2022/04/04 09:53:23;;;;;;;4.78;2.90;;;;;;;;;;4978373;28;20056;-90
2022/04/04 09:55:57;;;;;;;5.00;2.90;;;;;;;;;;4988135;28;20080;-90
2022/04/04 09:58:29;;;;;;;4.65;2.40;;;;;;;;;;4983146;28;20048;-89
2022/04/04 10:00:58;;;;;;;4.97;2.47;;;;;;;;;;4987097;28;20058;-90
2022/04/04 10:03:27;;;;;;;3.60;2.40;;;;;;;;;;4985846;28;20046;-91
2022/04/04 10:06:21;;;;;;;3.55;2.28;;;;;;;;;;4980839;28;20046;-90
2022/04/04 10:08:54;;;;;;;4.30;2.38;;;;;;;;;;4985244;28;20046;-90
2022/04/04 10:11:22;;;;;;;3.95;2.47;;;;;;;;;;4983402;28;20169;-89
2022/04/04 10:13:52;;;;;;;5.88;3.00;;;;;;;;;;4981970;28;20525;-91
2022/04/04 10:16:19;;;;;;;3.55;2.40;;;;;;;;;;4973345;28;20085;-89
2022/04/04 10:18:46;;;;;;;2.90;2.33;;;;;;;;;;4984874;28;20046;-91
2022/04/04 10:21:13;;;;;;;4.75;2.50;;;;;;;;;;4988668;28;20128;-90
2022/04/04 10:23:41;;;;;;;4.50;2.60;;;;;;;;;;4991376;28;20073;-88
2022/04/04 10:26:07;;;;;;;5.30;3.95;;;;;;;;;;4979105;28;20050;-88
2022/04/04 10:28:36;;;;;;;4.93;2.38;;;;;;;;;;4989909;28;20103;-89
2022/04/04 10:31:15;;;;;;;4.22;2.47;;;;;;;;;;4988578;28;20073;-88
2022/04/04 10:33:43;;;;;;;5.60;2.20;;;;;;;;;;4988347;28;20105;-89
2022/04/04 10:36:16;;;;;;;3.17;2.00;;;;;;;;;;4979683;28;20143;-90
2022/04/04 10:38:45;;;;;;;3.22;1.83;;;;;;;;;;4989311;28;20301;-90
2022/04/04 10:41:18;;;;;;;2.95;1.60;;;;;;;;;;4987616;28;20097;-89
2022/04/04 10:43:50;;;;;;;3.42;1.90;;;;;;;;;;4984768;28;20050;-88
2022/04/04 10:46:19;;;;;;;5.38;1.95;;;;;;;;;;4986283;28;20046;-89
2022/04/04 10:48:50;;;;;;;2.28;1.85;;;;;;;;;;4988878;28;20045;-88
2022/04/04 10:51:20;;;;;;;6.82;1.90;;;;;;;;;;4989174;28;20057;-90
2022/04/04 10:53:51;;;;;;;2.92;1.98;;;;;;;;;;4990589;28;20046;-90
2022/04/04 10:56:38;;;;;;;3.65;2.13;;;;;;;;;;4990265;28;20046;-91
2022/04/04 10:59:21;;;;;;;4.47;2.20;;;;;;;;;;4989503;28;20046;-87
2022/04/04 11:01:52;;;;;;;6.05;2.00;;;;;;;;;;4989704;28;20051;-88
2022/04/04 11:04:26;;;;;;;3.38;1.88;;;;;;;;;;4988045;28;20050;-87
2022/04/04 11:10:06;;;;;;;2.97;1.70;;;;;;;;;;4986275;28;20566;-89
2022/04/04 11:13:04;;;;;;;2.83;1.45;;;;;;;;;;4994142;28;20058;-90
2022/04/04 11:15:45;;;;;;;5.65;2.13;;;;;;;;;;4989298;28;20055;-90
2022/04/04 11:18:12;;;;;;;3.03;1.60;;;;;;;;;;4989056;28;20133;-90
2022/04/04 11:20:46;;;;;;;2.88;1.50;;;;;;;;;;4990753;28;20050;-90
2022/04/04 11:23:13;;;;;;;2.20;1.33;;;;;;;;;;4989465;28;20503;-90
2022/04/04 11:25:52;;;;;;;2.15;1.52;;;;;;;;;;4990644;28;20046;-89
2022/04/04 11:28:30;;;;;;;3.00;1.50;;;;;;;;;;4989267;28;20049;-89
2022/04/04 11:31:08;;;;;;;3.08;1.27;;;;;;;;;;4990827;28;20046;-89
2022/04/04 11:33:45;;;;;;;3.10;1.40;;;;;;;;;;4987370;28;20109;-89
2022/04/04 11:36:21;;;;;;;4.22;1.50;;;;;;;;;;4974653;28;20100;-90
2022/04/04 11:38:50;;;;;;;5.38;1.63;;;;;;;;;;4987223;28;20069;-88
2022/04/04 11:41:19;;;;;;;6.30;2.08;;;;;;;;;;4989565;28;20074;-89
2022/04/04 11:43:51;;;;;;;4.07;1.60;;;;;;;;;;4989204;28;20085;-89
2022/04/04 11:46:19;;;;;;;4.30;1.90;;;;;;;;;;4988296;28;20042;-89
2022/04/04 11:48:54;;;;;;;3.63;1.40;;;;;;;;;;4991807;28;20042;-89
2022/04/04 11:51:31;;;;;;;5.18;1.30;;;;;;;;;;4976036;28;20419;-89
2022/04/04 11:54:02;;;;;;;4.97;1.70;;;;;;;;;;4991703;28;20104;-89
2022/04/04 11:56:29;;;;;;;3.50;1.42;;;;;;;;;;4990021;28;20277;-89
2022/04/04 11:58:56;;;;;;;3.33;1.50;;;;;;;;;;4988711;28;20046;-88
2022/04/04 12:01:33;;;;;;;3.75;1.27;;;;;;;;;;4990177;28;20514;-89
2022/04/04 12:04:01;;;;;;;5.20;1.33;;;;;;;;;;4988526;28;20051;-89
2022/04/04 12:06:31;;;;;;;1.50;1.20;;;;;;;;;;4988403;28;20077;-89
2022/04/04 12:09:03;;;;;;;5.70;1.40;;;;;;;;;;4989598;28;20049;-88
2022/04/04 12:11:30;;;;;;;6.72;1.42;;;;;;;;;;4981377;28;20789;-91
2022/04/04 12:13:58;;;;;;;5.72;1.05;;;;;;;;;;4987587;28;20526;-88
2022/04/04 12:16:25;;;;;;;3.33;1.17;;;;;;;;;;4987188;28;20475;-89
2022/04/04 12:18:54;;;;;;;4.30;1.17;;;;;;;;;;4987816;28;20521;-88
2022/04/04 12:21:21;;;;;;;3.65;1.13;;;;;;;;;;4982490;28;20075;-90
2022/04/04 12:26:34;;;;;;;2.50;1.50;;;;;;;;;;4986772;28;20133;-89
2022/04/04 12:29:08;;;;;;;3.63;1.40;;;;;;;;;;4988955;28;20069;-87
2022/04/04 12:31:35;;;;;;;5.43;1.50;;;;;;;;;;4987635;28;20073;-87
2022/04/04 12:34:10;;;;;;;4.57;2.00;;;;;;;;;;4986994;28;20065;-86
2022/04/04 12:36:38;;;;;;;4.18;1.48;;;;;;;;;;4987607;28;20053;-86
2022/04/04 12:39:13;;;;;;;7.78;1.38;;;;;;;;;;4988649;28;20074;-87
2022/04/04 12:41:56;;;;;;;9.75;1.50;;;;;;;;;;4990183;28;20109;-87
2022/04/04 12:44:25;;;;;;;3.95;1.42;;;;;;;;;;4989123;28;20042;-87
2022/04/04 12:47:20;;;;;;;5.18;1.50;;;;;;;;;;4987096;28;20576;-88
2022/04/04 12:49:46;;;;;;;8.13;1.98;;;;;;;;;;4984037;28;20093;-86
2022/04/04 12:52:28;;;;;;;6.47;1.73;;;;;;;;;;4986783;28;20046;-86
2022/04/04 12:55:10;;;;;;;6.82;1.60;;;;;;;;;;4986858;28;20514;-87
2022/04/04 12:57:37;;;;;;;5.53;1.50;;;;;;;;;;4970871;28;20042;-86
2022/04/04 13:00:04;;;;;;;4.95;2.55;;;;;;;;;;4989042;28;20046;-86
2022/04/04 13:02:32;;;;;;;3.25;1.67;;;;;;;;;;4987815;28;20506;-87
2022/04/04 13:05:13;;;;;;;7.60;1.90;;;;;;;;;;4987235;28;20458;-86
2022/04/04 13:07:53;;;;;;;6.57;2.13;;;;;;;;;;4990531;28;20046;-86
2022/04/04 13:10:24;;;;;;;6.68;1.90;;;;;;;;;;4988057;28;20097;-86
2022/04/04 13:13:07;;;;;;;4.80;1.50;;;;;;;;;;4990482;28;20057;-88
2022/04/04 13:15:36;;;;;;;3.78;1.90;;;;;;;;;;4988158;28;20042;-84
2022/04/04 13:18:03;;;;;;;4.38;1.35;;;;;;;;;;4988998;28;20050;-84
2022/04/04 13:20:30;;;;;;;5.18;1.50;;;;;;;;;;4985517;28;20057;-87
2022/04/04 13:22:57;;;;;;;5.25;1.35;;;;;;;;;;4988002;28;20046;-88
2022/04/04 13:25:24;;;;;;;5.50;1.60;;;;;;;;;;4969236;28;20200;-90
2022/04/04 13:27:51;;;;;;;5.35;1.60;;;;;;;;;;4983214;28;20046;-90
2022/04/04 13:30:18;;;;;;;3.42;1.23;;;;;;;;;;4984774;28;20054;-88
2022/04/04 13:32:45;;;;;;;7.85;1.60;;;;;;;;;;4986001;28;20046;-87
2022/04/04 13:35:12;;;;;;;5.38;2.28;;;;;;;;;;4984162;28;20528;-87
2022/04/04 13:37:40;;;;;;;7.00;1.67;;;;;;;;;;4967243;28;20076;-88
2022/04/04 13:40:08;;;;;;;5.50;1.75;;;;;;;;;;4967659;28;20112;-89
2022/04/04 13:42:36;;;;;;;7.28;1.90;;;;;;;;;;4986370;28;20502;-88
2022/04/04 13:45:07;;;;;;;6.88;2.22;;;;;;;;;;4971400;28;20051;-88
2022/04/04 13:47:36;;;;;;;3.70;1.65;;;;;;;;;;4981107;28;20049;-89
2022/04/04 13:50:03;;;;;;;3.05;1.55;;;;;;;;;;4982028;28;20054;-84
2022/04/04 13:52:29;;;;;;;7.28;1.92;;;;;;;;;;4984212;28;20317;-85
2022/04/04 13:54:57;;;;;;;6.68;1.25;;;;;;;;;;4972794;28;20046;-86
2022/04/04 13:57:23;;;;;;;3.60;1.10;;;;;;;;;;4985464;28;20061;-86
2022/04/04 13:59:50;;;;;;;2.85;1.05;;;;;;;;;;4986128;28;20136;-87
2022/04/04 14:02:18;;;;;;;3.90;1.25;;;;;;;;;;4982327;28;20589;-86
2022/04/04 14:04:46;;;;;;;5.25;1.33;;;;;;;;;;4987232;28;20136;-84
2022/04/04 14:07:14;;;;;;;6.07;1.85;;;;;;;;;;4972469;28;20073;-84
2022/04/04 14:09:42;;;;;;;4.40;1.70;;;;;;;;;;4985407;28;20050;-83
2022/04/04 14:12:09;;;;;;;3.35;1.35;;;;;;;;;;4986192;28;20185;-83
2022/04/04 14:14:36;;;;;;;4.70;1.75;;;;;;;;;;4977700;28;20136;-84
2022/04/04 14:17:08;;;;;;;2.97;1.40;;;;;;;;;;4986309;28;20140;-82
2022/04/04 14:19:36;;;;;;;5.63;1.98;;;;;;;;;;4987710;28;20179;-82
2022/04/04 14:22:03;;;;;;;3.20;1.57;;;;;;;;;;4983748;28;20066;-83
2022/04/04 14:24:30;;;;;;;7.13;2.90;;;;;;;;;;4988112;28;20288;-83
2022/04/04 14:26:56;;;;;;;13.07;9.35;;;;;;;;;;4988384;28;20495;-83
2022/04/04 14:29:23;;;;;;;4.30;1.63;;;;;;;;;;4988167;28;20054;-83
2022/04/04 14:31:49;;;;;;;2.72;0.93;;;;;;;;;;4987939;28;20081;-82
2022/04/04 14:34:17;;;;;;;4.97;1.73;;;;;;;;;;4976993;28;20250;-82
2022/04/04 14:36:47;;;;;;;1.92;1.25;;;;;;;;;;4982992;28;20483;-82
2022/04/04 14:39:14;;;;;;;3.67;1.08;;;;;;;;;;4985301;28;20069;-82
2022/04/04 14:41:41;;;;;;;1.85;1.38;;;;;;;;;;4986978;28;20527;-82
2022/04/04 14:44:07;;;;;;;1.50;1.20;;;;;;;;;;4987890;28;20050;-82
2022/04/04 14:46:36;;;;;;;1.33;1.10;;;;;;;;;;4988564;28;20140;-83
2022/04/04 14:49:03;;;;;;;2.97;1.38;;;;;;;;;;4988255;28;20396;-83
2022/04/04 14:51:31;;;;;;;3.65;1.40;;;;;;;;;;4986773;28;20046;-80
2022/04/04 14:53:58;;;;;;;3.80;1.55;;;;;;;;;;4987440;28;20584;-82
2022/04/04 14:56:24;;;;;;;2.67;1.33;;;;;;;;;;4988390;28;20047;-83
2022/04/04 14:58:51;;;;;;;1.70;1.20;;;;;;;;;;4986555;28;20513;-86
2022/04/04 15:01:18;;;;;;;2.15;1.30;;;;;;;;;;4987230;28;20495;-82
2022/04/04 15:03:45;;;;;;;3.45;2.70;;;;;;;;;;4987307;28;20049;-85
2022/04/04 15:06:11;;;;;;;3.65;1.60;;;;;;;;;;4984419;28;20061;-82
2022/04/04 15:08:38;;;;;;;8.55;2.60;;;;;;;;;;4989227;28;20105;-82
2022/04/04 15:11:06;;;;;;;1.70;1.30;;;;;;;;;;4985612;28;20097;-82
2022/04/04 15:13:33;;;;;;;4.10;2.38;;;;;;;;;;4986153;28;20058;-81
2022/04/04 15:16:00;;;;;;;3.08;1.50;;;;;;;;;;4972993;28;20046;-83
2022/04/04 15:18:47;;;;;;;2.00;1.52;;;;;;;;;;4986943;28;20050;-84
2022/04/04 15:21:13;;;;;;;4.25;1.40;;;;;;;;;;4970798;28;20515;-82
2022/04/04 15:23:40;;;;;;;2.10;1.33;;;;;;;;;;4989937;28;20117;-80
2022/04/04 15:26:28;;;;;;;3.53;1.00;;;;;;;;;;4987131;28;20131;-83
2022/04/04 15:28:55;;;;;;;3.45;1.40;;;;;;;;;;4973705;28;20818;-82
2022/04/04 15:31:24;;;;;;;2.10;0.90;;;;;;;;;;4986402;28;20046;-82
2022/04/04 15:33:50;;;;;;;2.03;0.90;;;;;;;;;;4987027;28;20152;-82
2022/04/04 15:36:19;;;;;;;1.08;0.75;;;;;;;;;;4982490;28;20039;-83
2022/04/04 15:38:46;;;;;;;2.45;1.48;;;;;;;;;;4990656;28;20136;-82
2022/04/04 15:41:14;;;;;;;5.45;1.98;;;;;;;;;;4984941;28;20471;-82
2022/04/04 15:43:44;;;;;;;1.38;0.90;;;;;;;;;;4984916;28;20058;-81
2022/04/04 15:46:14;;;;;;;6.47;1.88;;;;;;;;;;4980803;28;20085;-83
2022/04/04 15:48:40;;;;;;;3.70;2.03;;;;;;;;;;4986079;28;20484;-83
2022/04/04 15:51:09;;;;;;;2.50;1.40;;;;;;;;;;4986167;28;20613;-84
2022/04/04 15:53:37;;;;;;;1.77;1.10;;;;;;;;;;4987366;28;20150;-83
2022/04/04 15:56:05;;;;;;;1.52;1.10;;;;;;;;;;4986586;28;20884;-81
2022/04/04 15:58:32;;;;;;;2.90;1.20;;;;;;;;;;4986216;28;20101;-82
2022/04/04 16:00:58;;;;;;;3.63;1.45;;;;;;;;;;4989770;28;20050;-82
2022/04/04 16:03:25;;;;;;;3.67;1.35;;;;;;;;;;4968233;28;20481;-81
2022/04/04 16:05:51;;;;;;;2.90;2.40;;;;;;;;;;4986458;28;20050;-84
2022/04/04 16:08:18;;;;;;;4.53;3.85;;;;;;;;;;4986983;28;20046;-83
2022/04/04 16:10:45;;;;;;;3.90;2.20;;;;;;;;;;4985713;28;20050;-82
2022/04/04 16:13:12;;;;;;;4.10;1.90;;;;;;;;;;4986155;28;20165;-82
2022/04/04 16:15:38;;;;;;;3.08;1.88;;;;;;;;;;4986924;28;20108;-83
2022/04/04 16:18:05;;;;;;;2.50;1.50;;;;;;;;;;4984515;28;20054;-81
2022/04/04 16:20:32;;;;;;;4.28;1.50;;;;;;;;;;4984370;28;20613;-84
2022/04/04 16:22:58;;;;;;;4.72;2.70;;;;;;;;;;4984978;28;20104;-83
2022/04/04 16:25:27;;;;;;;3.17;1.65;;;;;;;;;;4985717;28;20053;-82
2022/04/04 16:27:53;;;;;;;3.10;1.30;;;;;;;;;;4984157;28;20034;-82
2022/04/04 16:30:20;;;;;;;6.00;1.63;;;;;;;;;;4985418;28;20054;-81
2022/04/04 16:32:47;;;;;;;5.32;1.60;;;;;;;;;;4986682;28;20093;-83
2022/04/04 16:35:14;;;;;;;7.47;3.22;;;;;;;;;;4984905;28;20070;-83
2022/04/04 16:37:40;;;;;;;6.15;1.63;;;;;;;;;;4986596;28;20046;-79
2022/04/04 16:40:08;;;;;;;6.53;2.20;;;;;;;;;;4984578;28;20137;-81
2022/04/04 16:42:35;;;;;;;8.07;2.10;;;;;;;;;;4985415;28;20059;-82
2022/04/04 16:45:05;;;;;;;17.45;8.52;;;;;;;;;;4984050;28;20324;-80
2022/04/04 16:47:32;;;;;;;39.88;20.88;;;;;;;;;;4988334;28;20054;-82
2022/04/04 16:50:04;;;;;;;8.85;3.47;;;;;;;;;;4987042;28;20112;-81
2022/04/04 16:52:34;;;;;;;7.07;2.92;;;;;;;;;;4982706;28;20081;-81
2022/04/04 16:55:01;;;;;;;10.45;7.60;;;;;;;;;;4983226;28;20093;-83
2022/04/04 16:57:28;;;;;;;11.25;4.53;;;;;;;;;;4984752;28;20050;-82
2022/04/04 16:59:54;;;;;;;8.48;3.28;;;;;;;;;;4984383;28;20069;-83
2022/04/04 17:02:21;;;;;;;6.70;3.63;;;;;;;;;;4987837;28;20125;-81
2022/04/04 17:04:47;;;;;;;10.25;3.97;;;;;;;;;;4985487;28;20061;-82
2022/04/04 17:07:14;;;;;;;9.05;3.85;;;;;;;;;;4983556;28;20069;-82
2022/04/04 17:09:41;;;;;;;8.35;4.25;;;;;;;;;;4985085;28;20047;-83
2022/04/04 17:12:08;;;;;;;9.90;5.28;;;;;;;;;;4973983;28;20070;-82
2022/04/04 17:14:35;;;;;;;10.40;5.30;;;;;;;;;;4986822;28;20050;-84
2022/04/04 17:17:02;;;;;;;9.90;6.38;;;;;;;;;;4985676;28;20050;-82
2022/04/04 17:19:29;;;;;;;9.50;5.68;;;;;;;;;;4985879;28;20081;-84
2022/04/04 17:21:55;;;;;;;11.35;7.03;;;;;;;;;;4991516;28;20120;-82
2022/04/04 17:24:22;;;;;;;9.95;6.55;;;;;;;;;;4988360;28;20152;-84
2022/04/04 17:26:49;;;;;;;14.32;7.53;;;;;;;;;;4988018;28;20573;-83
2022/04/04 17:29:21;;;;;;;25.05;9.10;;;;;;;;;;4986018;28;20046;-81
2022/04/04 17:31:48;;;;;;;18.30;8.35;;;;;;;;;;4989562;28;20054;-85
2022/04/04 17:34:15;;;;;;;25.77;8.82;;;;;;;;;;4989966;28;20073;-86
2022/04/04 17:36:45;;;;;;;18.33;7.68;;;;;;;;;;4987606;28;20363;-85
2022/04/04 17:39:14;;;;;;;19.25;9.10;;;;;;;;;;4985871;28;20797;-86
2022/04/04 17:41:42;;;;;;;23.70;8.52;;;;;;;;;;4990477;28;20430;-84
2022/04/04 17:44:09;;;;;;;34.92;14.05;;;;;;;;;;4988372;28;20050;-85
2022/04/04 17:46:36;;;;;;;30.40;12.57;;;;;;;;;;4988653;28;20112;-84
2022/04/04 17:49:03;;;;;;;25.15;10.27;;;;;;;;;;4988524;28;20046;-84
2022/04/04 17:51:29;;;;;;;30.38;11.55;;;;;;;;;;4989668;28;20104;-85
2022/04/04 17:53:56;;;;;;;29.48;10.15;;;;;;;;;;4989377;28;20061;-85
2022/04/04 17:56:23;;;;;;;24.60;10.75;;;;;;;;;;4988495;28;20038;-85
2022/04/04 17:58:49;;;;;;;29.05;10.70;;;;;;;;;;4989156;28;20926;-85
2022/04/04 18:01:17;;;;;;;34.65;10.40;;;;;;;;;;4989286;28;20062;-86
2022/04/04 18:03:44;;;;;;;33.00;10.43;;;;;;;;;;4989020;28;20533;-87
2022/04/04 18:06:11;;;;;;;37.17;9.82;;;;;;;;;;4992024;28;20078;-86
2022/04/04 18:08:38;;;;;;;29.67;10.25;;;;;;;;;;4990321;28;20058;-84
2022/04/04 18:11:24;;;;;;;38.67;13.90;;;;;;;;;;4988505;28;20564;-85
2022/04/04 18:13:51;;;;;;;40.88;10.98;;;;;;;;;;4987299;28;20073;-86
2022/04/04 18:16:18;;;;;;;32.08;11.07;;;;;;;;;;4988297;28;20042;-85
2022/04/04 18:18:45;;;;;;;41.20;10.68;;;;;;;;;;4971505;28;20046;-84
2022/04/04 18:21:12;;;;;;;32.67;12.43;;;;;;;;;;4986655;28;20093;-85
2022/04/04 18:23:39;;;;;;;40.55;12.10;;;;;;;;;;4988974;28;20519;-86
2022/04/04 18:26:07;;;;;;;50.08;12.57;;;;;;;;;;4987251;28;20140;-86
2022/04/04 18:28:33;;;;;;;44.90;11.70;;;;;;;;;;4988004;28;20057;-84
2022/04/04 18:31:00;;;;;;;47.42;12.50;;;;;;;;;;4986832;28;20586;-86
2022/04/04 18:33:27;;;;;;;47.35;11.82;;;;;;;;;;4987759;28;20096;-85
2022/04/04 18:35:53;;;;;;;49.97;13.45;;;;;;;;;;4988813;28;20082;-85
2022/04/04 18:38:21;;;;;;;63.75;13.23;;;;;;;;;;4988347;28;20046;-86
2022/04/04 18:40:48;;;;;;;46.33;12.63;;;;;;;;;;4985580;28;20053;-86
2022/04/04 18:43:15;;;;;;;54.08;12.55;;;;;;;;;;4986348;28;20070;-85
2022/04/04 18:45:42;;;;;;;60.25;15.23;;;;;;;;;;4988897;28;20069;-85
2022/04/04 18:48:09;;;;;;;59.42;13.07;;;;;;;;;;4987749;28;20137;-84
2022/04/04 18:50:37;;;;;;;60.88;15.15;;;;;;;;;;4999533;28;20050;-84
2022/04/04 18:53:08;;;;;;;79.10;16.13;;;;;;;;;;4991081;28;20073;-82
2022/04/04 18:55:35;;;;;;;78.18;14.07;;;;;;;;;;4971655;28;20278;-84
2022/04/04 18:58:01;;;;;;;79.00;15.57;;;;;;;;;;4988468;28;20128;-85
2022/04/04 19:00:28;;;;;;;67.95;14.73;;;;;;;;;;4989132;28;20625;-85
2022/04/04 19:02:55;;;;;;;79.43;13.48;;;;;;;;;;4989050;28;20043;-81
2022/04/04 19:05:21;;;;;;;72.15;13.32;;;;;;;;;;4988311;28;20054;-81
2022/04/04 19:08:01;;;;;;;58.35;13.20;;;;;;;;;;4972477;28;20538;-81
2022/04/04 19:10:28;;;;;;;63.63;12.50;;;;;;;;;;4988021;28;20411;-81
2022/04/04 19:12:55;;;;;;;70.22;16.48;;;;;;;;;;4988961;28;20094;-80
2022/04/04 19:15:22;;;;;;;59.10;11.88;;;;;;;;;;4987582;28;20050;-83
2022/04/04 19:17:49;;;;;;;73.07;11.50;;;;;;;;;;4989942;28;20050;-83
2022/04/04 19:20:16;;;;;;;71.93;12.15;;;;;;;;;;4982027;28;20148;-82
2022/04/04 19:22:43;;;;;;;57.08;12.20;;;;;;;;;;4985529;28;20050;-81
2022/04/04 19:25:10;;;;;;;82.53;16.75;;;;;;;;;;4994422;28;20836;-82
2022/04/04 19:27:37;;;;;;;72.35;12.15;;;;;;;;;;4988239;28;20097;-81
2022/04/04 19:30:07;;;;;;;71.05;12.68;;;;;;;;;;4988256;28;20042;-83
2022/04/04 19:32:35;;;;;;;73.72;15.02;;;;;;;;;;4988254;28;20050;-81
2022/04/04 19:35:03;;;;;;;72.95;16.83;;;;;;;;;;4985123;28;20050;-83
2022/04/04 19:37:30;;;;;;;80.97;15.17;;;;;;;;;;4993695;28;20054;-83
2022/04/04 19:39:58;;;;;;;76.53;14.82;;;;;;;;;;4984453;28;20046;-82
2022/04/04 19:42:26;;;;;;;76.18;14.55;;;;;;;;;;4984809;28;20054;-82
2022/04/04 19:44:52;;;;;;;80.70;14.40;;;;;;;;;;4995672;28;20061;-81
2022/04/04 19:47:19;;;;;;;67.80;14.38;;;;;;;;;;4989400;28;20057;-82
2022/04/04 19:49:47;;;;;;;78.20;13.45;;;;;;;;;;4986608;28;20478;-82
2022/04/04 19:52:14;;;;;;;73.45;12.90;;;;;;;;;;4986244;28;20050;-82
2022/04/04 19:54:42;;;;;;;86.07;13.55;;;;;;;;;;4987907;28;20078;-85
2022/04/04 19:57:09;;;;;;;64.97;12.23;;;;;;;;;;4985551;28;20047;-82
2022/04/04 19:59:38;;;;;;;58.67;12.75;;;;;;;;;;4987689;28;20054;-81
2022/04/04 20:02:05;;;;;;;69.63;13.35;;;;;;;;;;4987608;28;20113;-80
2022/04/04 20:04:33;;;;;;;62.45;11.27;;;;;;;;;;4969121;28;20054;-82
2022/04/04 20:06:59;;;;;;;66.00;13.48;;;;;;;;;;4989332;28;20097;-82
2022/04/04 20:09:26;;;;;;;67.03;15.52;;;;;;;;;;4985968;28;20089;-81
2022/04/04 20:11:55;;;;;;;72.55;15.38;;;;;;;;;;4987665;28;20050;-82
2022/04/04 20:14:22;;;;;;;76.72;12.30;;;;;;;;;;4985802;28;20502;-83
2022/04/04 20:16:49;;;;;;;87.78;17.73;;;;;;;;;;4995765;28;20042;-82
2022/04/04 20:19:16;;;;;;;58.78;12.10;;;;;;;;;;4990327;28;20506;-82
2022/04/04 20:21:42;;;;;;;70.55;12.23;;;;;;;;;;4993987;28;20072;-82
2022/04/04 20:24:09;;;;;;;67.03;12.60;;;;;;;;;;4990984;28;20046;-83
2022/04/04 20:26:36;;;;;;;60.08;12.23;;;;;;;;;;4988601;28;20124;-82
2022/04/04 20:29:02;;;;;;;58.92;11.68;;;;;;;;;;4989309;28;20120;-81
2022/04/04 20:31:29;;;;;;;75.70;12.43;;;;;;;;;;4991091;28;20066;-82
2022/04/04 20:33:55;;;;;;;76.32;18.63;;;;;;;;;;4991099;28;20054;-82
2022/04/04 20:36:24;;;;;;;73.45;13.85;;;;;;;;;;4989637;28;20670;-82
2022/04/04 20:38:50;;;;;;;59.40;11.18;;;;;;;;;;4986180;28;20054;-81
2022/04/04 20:41:17;;;;;;;73.28;12.27;;;;;;;;;;4985828;28;20160;-82
2022/04/04 20:43:44;;;;;;;64.15;12.13;;;;;;;;;;4984501;28;20093;-83
2022/04/04 20:46:14;;;;;;;62.53;13.02;;;;;;;;;;4985262;28;20038;-83
2022/04/04 20:48:44;;;;;;;59.58;12.77;;;;;;;;;;4985939;28;20046;-83
2022/04/04 20:51:13;;;;;;;66.72;11.98;;;;;;;;;;4984903;28;20061;-83
2022/04/04 20:53:40;;;;;;;54.83;11.47;;;;;;;;;;4985709;28;20555;-83